sensor_id;sensor_type;location;lat;lon;timestamp;pressure;altitude;pressure_sealevel;temperature;humidity
62237;BME280;69163;48.778;2.308;2023-09-19T00:01:19;100652.37;;;18.17;44.53
62237;BME280;69163;48.778;2.308;2023-09-19T00:03:44;100654.91;;;18.47;44.39
62237;BME280;69163;48.778;2.308;2023-09-19T00:06:09;100655.01;;;18.30;44.23
62237;BME280;69163;48.778;2.308;2023-09-19T00:08:35;100649.65;;;18.62;44.46
62237;BME280;69163;48.778;2.308;2023-09-19T00:11:00;100652.39;;;18.70;44.33
62237;BME280;69163;48.778;2.308;2023-09-19T00:13:24;100652.32;;;18.21;44.32
62237;BME280;69163;48.778;2.308;2023-09-19T00:15:50;100649.86;;;18.15;44.41
62237;BME280;69163;48.778;2.308;2023-09-19T00:18:16;100651.34;;;18.15;44.39
62237;BME280;69163;48.778;2.308;2023-09-19T00:20:41;100653.80;;;18.13;44.33
62237;BME280;69163;48.778;2.308;2023-09-19T00:23:06;100658.27;;;18.42;44.20
62237;BME280;69163;48.778;2.308;2023-09-19T00:25:31;100659.36;;;18.34;44.34
62237;BME280;69163;48.778;2.308;2023-09-19T00:27:56;100665.65;;;18.60;44.22
62237;BME280;69163;48.778;2.308;2023-09-19T00:30:21;100664.85;;;18.59;44.13
62237;BME280;69163;48.778;2.308;2023-09-19T00:32:47;100670.91;;;18.49;44.24
62237;BME280;69163;48.778;2.308;2023-09-19T00:35:12;100671.94;;;18.08;44.09
62237;BME280;69163;48.778;2.308;2023-09-19T00:37:37;100671.87;;;18.27;44.21
62237;BME280;69163;48.778;2.308;2023-09-19T00:40:02;100671.72;;;18.12;44.48
62237;BME280;69163;48.778;2.308;2023-09-19T00:42:27;100670.71;;;18.12;44.50
62237;BME280;69163;48.778;2.308;2023-09-19T00:44:52;100670.99;;;18.36;44.44
62237;BME280;69163;48.778;2.308;2023-09-19T00:47:17;100668.03;;;18.37;44.38
62237;BME280;69163;48.778;2.308;2023-09-19T00:49:43;100672.31;;;18.42;44.26
62237;BME280;69163;48.778;2.308;2023-09-19T00:52:09;100675.59;;;18.29;44.05
62237;BME280;69163;48.778;2.308;2023-09-19T00:54:34;100677.66;;;18.33;43.94
62237;BME280;69163;48.778;2.308;2023-09-19T00:56:59;100678.31;;;18.41;44.09
62237;BME280;69163;48.778;2.308;2023-09-19T00:59:24;100678.56;;;17.96;44.41
62237;BME280;69163;48.778;2.308;2023-09-19T01:01:49;100680.70;;;18.35;43.79
62237;BME280;69163;48.778;2.308;2023-09-19T01:04:14;100680.72;;;18.22;43.86
62237;BME280;69163;48.778;2.308;2023-09-19T01:06:39;100679.87;;;18.45;43.94
62237;BME280;69163;48.778;2.308;2023-09-19T01:09:05;100680.82;;;18.25;43.86
62237;BME280;69163;48.778;2.308;2023-09-19T01:11:36;100675.35;;;17.96;43.89
62237;BME280;69163;48.778;2.308;2023-09-19T01:14:01;100677.45;;;18.15;43.94
62237;BME280;69163;48.778;2.308;2023-09-19T01:16:31;100678.18;;;18.08;44.04
62237;BME280;69163;48.778;2.308;2023-09-19T01:18:50;100681.39;;;18.22;44.19
62237;BME280;69163;48.778;2.308;2023-09-19T01:21:18;100685.01;;;17.84;44.02
62237;BME280;69163;48.778;2.308;2023-09-19T01:26:07;100683.40;;;18.31;43.92
62237;BME280;69163;48.778;2.308;2023-09-19T01:28:31;100682.96;;;18.24;43.91
62237;BME280;69163;48.778;2.308;2023-09-19T01:30:56;100682.02;;;18.37;43.88
62237;BME280;69163;48.778;2.308;2023-09-19T01:33:16;100679.62;;;18.14;43.75
62237;BME280;69163;48.778;2.308;2023-09-19T01:35:41;100682.37;;;18.50;43.56
62237;BME280;69163;48.778;2.308;2023-09-19T01:38:08;100682.52;;;18.27;43.50
62237;BME280;69163;48.778;2.308;2023-09-19T01:40:33;100682.72;;;18.23;43.53
62237;BME280;69163;48.778;2.308;2023-09-19T01:42:59;100687.09;;;18.19;43.56
62237;BME280;69163;48.778;2.308;2023-09-19T01:45:28;100691.95;;;18.43;43.49
62237;BME280;69163;48.778;2.308;2023-09-19T01:47:51;100692.18;;;18.37;43.55
62237;BME280;69163;48.778;2.308;2023-09-19T01:50:21;100696.07;;;18.13;43.55
62237;BME280;69163;48.778;2.308;2023-09-19T01:52:46;100696.64;;;18.42;43.49
62237;BME280;69163;48.778;2.308;2023-09-19T01:55:07;100696.06;;;18.23;43.69
62237;BME280;69163;48.778;2.308;2023-09-19T01:57:30;100695.45;;;18.19;43.68
62237;BME280;69163;48.778;2.308;2023-09-19T02:00:00;100697.36;;;17.94;43.74
62237;BME280;69163;48.778;2.308;2023-09-19T02:02:20;100701.40;;;18.10;43.79
62237;BME280;69163;48.778;2.308;2023-09-19T02:04:44;100702.61;;;17.88;43.71
62237;BME280;69163;48.778;2.308;2023-09-19T02:07:10;100705.25;;;17.73;43.53
62237;BME280;69163;48.778;2.308;2023-09-19T02:09:35;100707.79;;;18.31;43.41
62237;BME280;69163;48.778;2.308;2023-09-19T02:12:00;100710.29;;;18.29;43.36
62237;BME280;69163;48.778;2.308;2023-09-19T02:14:24;100708.43;;;17.98;43.43
62237;BME280;69163;48.778;2.308;2023-09-19T02:16:50;100707.09;;;17.86;43.62
62237;BME280;69163;48.778;2.308;2023-09-19T02:19:16;100707.23;;;18.13;43.51
62237;BME280;69163;48.778;2.308;2023-09-19T02:21:41;100708.20;;;18.22;43.37
62237;BME280;69163;48.778;2.308;2023-09-19T02:24:07;100709.12;;;18.29;43.21
62237;BME280;69163;48.778;2.308;2023-09-19T02:26:31;100707.14;;;18.36;43.04
62237;BME280;69163;48.778;2.308;2023-09-19T02:28:56;100704.13;;;18.08;43.49
62237;BME280;69163;48.778;2.308;2023-09-19T02:31:21;100705.59;;;18.17;43.31
62237;BME280;69163;48.778;2.308;2023-09-19T02:33:46;100699.32;;;18.19;43.30
62237;BME280;69163;48.778;2.308;2023-09-19T02:36:12;100701.54;;;17.98;43.16
62237;BME280;69163;48.778;2.308;2023-09-19T02:38:37;100701.66;;;18.09;43.33
62237;BME280;69163;48.778;2.308;2023-09-19T02:41:03;100706.01;;;18.18;43.16
62237;BME280;69163;48.778;2.308;2023-09-19T02:43:27;100706.40;;;18.14;43.26
62237;BME280;69163;48.778;2.308;2023-09-19T02:45:53;100706.60;;;18.41;43.17
62237;BME280;69163;48.778;2.308;2023-09-19T02:48:18;100707.69;;;17.88;42.86
62237;BME280;69163;48.778;2.308;2023-09-19T02:50:43;100707.98;;;18.07;42.92
62237;BME280;69163;48.778;2.308;2023-09-19T02:53:09;100707.84;;;17.88;43.16
62237;BME280;69163;48.778;2.308;2023-09-19T02:55:33;100708.68;;;18.22;43.02
62237;BME280;69163;48.778;2.308;2023-09-19T02:57:59;100701.19;;;18.06;43.27
62237;BME280;69163;48.778;2.308;2023-09-19T03:00:24;100702.78;;;18.07;43.27
62237;BME280;69163;48.778;2.308;2023-09-19T03:02:50;100701.17;;;18.13;43.11
62237;BME280;69163;48.778;2.308;2023-09-19T03:05:14;100695.53;;;18.16;43.04
62237;BME280;69163;48.778;2.308;2023-09-19T03:07:39;100693.20;;;18.13;43.06
62237;BME280;69163;48.778;2.308;2023-09-19T03:10:06;100695.82;;;18.09;43.12
62237;BME280;69163;48.778;2.308;2023-09-19T03:12:29;100700.92;;;17.77;42.84
62237;BME280;69163;48.778;2.308;2023-09-19T03:14:55;100701.78;;;18.19;42.89
62237;BME280;69163;48.778;2.308;2023-09-19T03:17:20;100701.45;;;17.82;43.04
62237;BME280;69163;48.778;2.308;2023-09-19T03:19:45;100702.26;;;18.10;42.92
62237;BME280;69163;48.778;2.308;2023-09-19T03:22:11;100699.68;;;17.61;43.00
62237;BME280;69163;48.778;2.308;2023-09-19T03:24:36;100699.66;;;18.43;42.77
62237;BME280;69163;48.778;2.308;2023-09-19T03:27:01;100697.09;;;18.21;42.66
62237;BME280;69163;48.778;2.308;2023-09-19T03:29:26;100699.85;;;18.11;42.83
62237;BME280;69163;48.778;2.308;2023-09-19T03:31:51;100701.16;;;18.13;42.81
62237;BME280;69163;48.778;2.308;2023-09-19T03:34:17;100706.09;;;17.97;43.04
62237;BME280;69163;48.778;2.308;2023-09-19T03:36:42;100707.10;;;18.02;42.87
62237;BME280;69163;48.778;2.308;2023-09-19T03:39:08;100706.04;;;18.18;42.67
62237;BME280;69163;48.778;2.308;2023-09-19T03:41:32;100707.20;;;18.11;42.72
62237;BME280;69163;48.778;2.308;2023-09-19T03:43:57;100704.50;;;18.08;42.74
62237;BME280;69163;48.778;2.308;2023-09-19T03:46:23;100699.98;;;18.35;42.62
62237;BME280;69163;48.778;2.308;2023-09-19T03:48:48;100703.60;;;18.33;42.66
62237;BME280;69163;48.778;2.308;2023-09-19T03:51:12;100701.06;;;17.87;42.53
62237;BME280;69163;48.778;2.308;2023-09-19T03:53:38;100699.38;;;18.32;42.69
62237;BME280;69163;48.778;2.308;2023-09-19T03:56:04;100700.82;;;18.20;42.42
62237;BME280;69163;48.778;2.308;2023-09-19T03:58:29;100699.53;;;17.97;42.31
62237;BME280;69163;48.778;2.308;2023-09-19T04:00:55;100697.23;;;18.27;42.22
62237;BME280;69163;48.778;2.308;2023-09-19T04:03:19;100690.65;;;18.12;42.43
62237;BME280;69163;48.778;2.308;2023-09-19T04:05:44;100693.25;;;18.15;42.34
62237;BME280;69163;48.778;2.308;2023-09-19T04:08:09;100696.34;;;17.84;42.14
62237;BME280;69163;48.778;2.308;2023-09-19T04:10:35;100697.75;;;18.51;41.81
62237;BME280;69163;48.778;2.308;2023-09-19T04:13:00;100698.14;;;18.40;41.92
62237;BME280;69163;48.778;2.308;2023-09-19T04:15:24;100693.18;;;18.37;42.03
62237;BME280;69163;48.778;2.308;2023-09-19T04:17:50;100689.12;;;18.25;42.14
62237;BME280;69163;48.778;2.308;2023-09-19T04:20:16;100687.64;;;17.98;41.71
62237;BME280;69163;48.778;2.308;2023-09-19T04:22:41;100685.31;;;18.10;41.93
62237;BME280;69163;48.778;2.308;2023-09-19T04:25:07;100686.03;;;18.47;41.69
62237;BME280;69163;48.778;2.308;2023-09-19T04:27:31;100688.46;;;18.35;41.83
62237;BME280;69163;48.778;2.308;2023-09-19T04:29:56;100696.68;;;18.45;41.73
62237;BME280;69163;48.778;2.308;2023-09-19T04:32:21;100698.69;;;18.31;41.86
62237;BME280;69163;48.778;2.308;2023-09-19T04:34:47;100698.47;;;18.41;41.73
62237;BME280;69163;48.778;2.308;2023-09-19T04:37:12;100698.11;;;18.37;41.76
62237;BME280;69163;48.778;2.308;2023-09-19T04:39:37;100696.60;;;18.50;41.88
62237;BME280;69163;48.778;2.308;2023-09-19T04:42:03;100695.63;;;18.05;42.19
62237;BME280;69163;48.778;2.308;2023-09-19T04:44:27;100690.11;;;18.09;42.10
62237;BME280;69163;48.778;2.308;2023-09-19T04:46:52;100691.39;;;18.32;42.11
62237;BME280;69163;48.778;2.308;2023-09-19T04:49:17;100686.89;;;18.09;42.15
62237;BME280;69163;48.778;2.308;2023-09-19T04:51:43;100686.24;;;18.16;41.95
62237;BME280;69163;48.778;2.308;2023-09-19T04:54:09;100692.71;;;18.10;41.71
62237;BME280;69163;48.778;2.308;2023-09-19T04:56:33;100695.57;;;18.24;41.77
62237;BME280;69163;48.778;2.308;2023-09-19T04:58:59;100701.79;;;18.52;41.79
62237;BME280;69163;48.778;2.308;2023-09-19T05:01:23;100705.63;;;18.30;41.67
62237;BME280;69163;48.778;2.308;2023-09-19T05:03:49;100709.46;;;18.12;41.88
62237;BME280;69163;48.778;2.308;2023-09-19T05:06:14;100713.17;;;17.95;41.84
62237;BME280;69163;48.778;2.308;2023-09-19T05:08:39;100714.15;;;18.47;41.77
62237;BME280;69163;48.778;2.308;2023-09-19T05:11:05;100716.01;;;18.26;41.72
62237;BME280;69163;48.778;2.308;2023-09-19T05:13:30;100715.18;;;18.34;41.53
62237;BME280;69163;48.778;2.308;2023-09-19T05:15:55;100717.41;;;18.09;41.49
62237;BME280;69163;48.778;2.308;2023-09-19T05:18:20;100712.73;;;18.22;41.57
62237;BME280;69163;48.778;2.308;2023-09-19T05:20:45;100712.44;;;18.38;41.48
62237;BME280;69163;48.778;2.308;2023-09-19T05:23:11;100712.55;;;17.96;41.73
62237;BME280;69163;48.778;2.308;2023-09-19T05:25:37;100713.60;;;17.93;42.11
62237;BME280;69163;48.778;2.308;2023-09-19T05:28:01;100717.39;;;18.25;41.90
62237;BME280;69163;48.778;2.308;2023-09-19T05:30:26;100719.22;;;18.10;41.81
62237;BME280;69163;48.778;2.308;2023-09-19T05:32:51;100723.17;;;18.15;41.76
62237;BME280;69163;48.778;2.308;2023-09-19T05:35:16;100726.71;;;18.27;41.49
62237;BME280;69163;48.778;2.308;2023-09-19T05:37:41;100726.35;;;18.09;41.75
62237;BME280;69163;48.778;2.308;2023-09-19T05:40:09;100727.76;;;18.12;41.59
62237;BME280;69163;48.778;2.308;2023-09-19T05:42:32;100732.74;;;18.32;41.33
62237;BME280;69163;48.778;2.308;2023-09-19T05:44:57;100738.72;;;18.39;41.60
62237;BME280;69163;48.778;2.308;2023-09-19T05:47:23;100740.17;;;18.13;41.58
62237;BME280;69163;48.778;2.308;2023-09-19T05:49:48;100741.24;;;18.12;41.63
62237;BME280;69163;48.778;2.308;2023-09-19T05:52:12;100743.13;;;18.12;41.57
62237;BME280;69163;48.778;2.308;2023-09-19T05:54:38;100742.93;;;17.92;41.31
62237;BME280;69163;48.778;2.308;2023-09-19T05:57:04;100745.22;;;18.27;41.35
62237;BME280;69163;48.778;2.308;2023-09-19T05:59:29;100749.51;;;18.00;41.48
62237;BME280;69163;48.778;2.308;2023-09-19T06:01:54;100747.37;;;17.83;41.30
62237;BME280;69163;48.778;2.308;2023-09-19T06:04:19;100748.72;;;18.41;41.07
62237;BME280;69163;48.778;2.308;2023-09-19T06:06:44;100750.43;;;18.17;41.22
62237;BME280;69163;48.778;2.308;2023-09-19T06:09:09;100751.68;;;17.92;41.22
62237;BME280;69163;48.778;2.308;2023-09-19T06:11:35;100752.27;;;18.22;41.54
62237;BME280;69163;48.778;2.308;2023-09-19T06:14:00;100752.38;;;18.49;41.44
62237;BME280;69163;48.778;2.308;2023-09-19T06:16:25;100747.99;;;17.94;41.54
62237;BME280;69163;48.778;2.308;2023-09-19T06:18:50;100754.34;;;18.47;41.16
62237;BME280;69163;48.778;2.308;2023-09-19T06:21:15;100756.25;;;18.57;41.09
62237;BME280;69163;48.778;2.308;2023-09-19T06:23:41;100759.01;;;18.29;41.08
62237;BME280;69163;48.778;2.308;2023-09-19T06:26:06;100760.86;;;18.19;40.99
62237;BME280;69163;48.778;2.308;2023-09-19T06:28:31;100759.19;;;18.52;40.83
62237;BME280;69163;48.778;2.308;2023-09-19T06:30:56;100758.38;;;18.82;40.73
62237;BME280;69163;48.778;2.308;2023-09-19T06:33:21;100762.56;;;18.92;40.72
62237;BME280;69163;48.778;2.308;2023-09-19T06:35:47;100764.47;;;18.64;40.69
62237;BME280;69163;48.778;2.308;2023-09-19T06:38:12;100766.84;;;18.44;40.62
62237;BME280;69163;48.778;2.308;2023-09-19T06:40:37;100769.72;;;18.49;40.61
62237;BME280;69163;48.778;2.308;2023-09-19T06:43:03;100770.18;;;18.74;40.65
62237;BME280;69163;48.778;2.308;2023-09-19T06:45:27;100767.14;;;19.13;40.34
62237;BME280;69163;48.778;2.308;2023-09-19T06:47:52;100773.58;;;19.11;40.43
62237;BME280;69163;48.778;2.308;2023-09-19T06:50:17;100774.27;;;18.59;40.45
62237;BME280;69163;48.778;2.308;2023-09-19T06:52:42;100769.80;;;18.92;41.22
62237;BME280;69163;48.778;2.308;2023-09-19T06:55:09;100767.90;;;17.94;42.53
62237;BME280;69163;48.778;2.308;2023-09-19T06:57:33;100762.78;;;17.84;42.38
62237;BME280;69163;48.778;2.308;2023-09-19T06:59:59;100761.70;;;18.22;41.76
62237;BME280;69163;48.778;2.308;2023-09-19T07:02:24;100761.97;;;18.45;41.00
62237;BME280;69163;48.778;2.308;2023-09-19T07:04:49;100763.53;;;18.61;41.35
62237;BME280;69163;48.778;2.308;2023-09-19T07:07:14;100767.25;;;18.61;41.30
62237;BME280;69163;48.778;2.308;2023-09-19T07:09:39;100770.87;;;19.22;40.91
62237;BME280;69163;48.778;2.308;2023-09-19T07:12:06;100770.86;;;19.47;40.71
62237;BME280;69163;48.778;2.308;2023-09-19T07:14:29;100769.97;;;19.48;40.47
62237;BME280;69163;48.778;2.308;2023-09-19T07:16:54;100770.02;;;19.67;40.41
62237;BME280;69163;48.778;2.308;2023-09-19T07:19:20;100774.00;;;19.74;40.43
62237;BME280;69163;48.778;2.308;2023-09-19T07:21:45;100773.25;;;19.87;40.40
62237;BME280;69163;48.778;2.308;2023-09-19T07:24:11;100770.14;;;19.73;40.39
62237;BME280;69163;48.778;2.308;2023-09-19T07:26:36;100763.30;;;20.00;40.48
62237;BME280;69163;48.778;2.308;2023-09-19T07:29:01;100754.13;;;20.09;40.36
62237;BME280;69163;48.778;2.308;2023-09-19T07:31:26;100758.00;;;20.16;40.39
62237;BME280;69163;48.778;2.308;2023-09-19T07:33:51;100759.77;;;20.18;40.43
62237;BME280;69163;48.778;2.308;2023-09-19T07:36:17;100759.01;;;20.23;40.49
62237;BME280;69163;48.778;2.308;2023-09-19T07:38:42;100760.33;;;20.01;40.61
62237;BME280;69163;48.778;2.308;2023-09-19T07:41:08;100765.75;;;19.82;40.61
62237;BME280;69163;48.778;2.308;2023-09-19T07:43:33;100765.71;;;20.31;40.72
62237;BME280;69163;48.778;2.308;2023-09-19T07:46:02;100768.47;;;20.33;40.79
62237;BME280;69163;48.778;2.308;2023-09-19T07:48:23;100768.63;;;20.38;40.80
62237;BME280;69163;48.778;2.308;2023-09-19T07:50:48;100762.37;;;20.38;40.81
62237;BME280;69163;48.778;2.308;2023-09-19T07:53:13;100759.30;;;20.37;40.91
62237;BME280;69163;48.778;2.308;2023-09-19T07:55:38;100757.18;;;20.11;41.01
62237;BME280;69163;48.778;2.308;2023-09-19T07:58:04;100761.61;;;20.38;41.06
62237;BME280;69163;48.778;2.308;2023-09-19T08:00:29;100766.29;;;20.15;41.11
62237;BME280;69163;48.778;2.308;2023-09-19T08:02:54;100768.58;;;20.12;41.25
62237;BME280;69163;48.778;2.308;2023-09-19T08:05:20;100767.03;;;20.19;41.19
62237;BME280;69163;48.778;2.308;2023-09-19T08:07:46;100768.65;;;20.18;41.33
62237;BME280;69163;48.778;2.308;2023-09-19T08:10:10;100769.51;;;20.03;41.28
62237;BME280;69163;48.778;2.308;2023-09-19T08:12:36;100769.63;;;20.50;41.29
62237;BME280;69163;48.778;2.308;2023-09-19T08:15:01;100768.43;;;20.72;41.37
62237;BME280;69163;48.778;2.308;2023-09-19T08:17:26;100769.55;;;20.51;41.39
62237;BME280;69163;48.778;2.308;2023-09-19T08:19:51;100767.36;;;20.26;41.44
62237;BME280;69163;48.778;2.308;2023-09-19T08:22:16;100767.79;;;20.06;41.42
62237;BME280;69163;48.778;2.308;2023-09-19T08:24:42;100769.83;;;20.24;41.56
62237;BME280;69163;48.778;2.308;2023-09-19T08:27:07;100774.21;;;20.01;41.63
62237;BME280;69163;48.778;2.308;2023-09-19T08:29:32;100770.13;;;20.23;41.72
62237;BME280;69163;48.778;2.308;2023-09-19T08:31:58;100774.53;;;20.29;41.66
62237;BME280;69163;48.778;2.308;2023-09-19T08:34:23;100773.12;;;20.58;41.62
62237;BME280;69163;48.778;2.308;2023-09-19T08:36:48;100777.18;;;20.58;41.66
62237;BME280;69163;48.778;2.308;2023-09-19T08:39:13;100779.14;;;20.10;41.67
62237;BME280;69163;48.778;2.308;2023-09-19T08:41:38;100775.20;;;20.56;41.73
62237;BME280;69163;48.778;2.308;2023-09-19T08:44:04;100777.43;;;20.08;41.77
62237;BME280;69163;48.778;2.308;2023-09-19T08:46:30;100779.65;;;20.10;41.83
62237;BME280;69163;48.778;2.308;2023-09-19T08:49:01;100779.73;;;20.37;41.85
62237;BME280;69163;48.778;2.308;2023-09-19T08:51:25;100780.60;;;20.39;41.89
62237;BME280;69163;48.778;2.308;2023-09-19T08:53:51;100784.78;;;20.39;41.90
62237;BME280;69163;48.778;2.308;2023-09-19T08:56:11;100781.45;;;20.11;41.91
62237;BME280;69163;48.778;2.308;2023-09-19T08:58:46;100779.82;;;20.55;42.03
62237;BME280;69163;48.778;2.308;2023-09-19T09:01:01;100780.45;;;20.53;42.11
62237;BME280;69163;48.778;2.308;2023-09-19T09:03:25;100778.05;;;20.04;42.13
62237;BME280;69163;48.778;2.308;2023-09-19T09:05:50;100779.41;;;20.29;42.18
62237;BME280;69163;48.778;2.308;2023-09-19T09:08:16;100769.79;;;20.07;42.07
62237;BME280;69163;48.778;2.308;2023-09-19T09:10:41;100769.11;;;20.12;42.17
62237;BME280;69163;48.778;2.308;2023-09-19T09:13:07;100771.28;;;20.11;42.22
62237;BME280;69163;48.778;2.308;2023-09-19T09:15:32;100772.91;;;20.36;42.22
62237;BME280;69163;48.778;2.308;2023-09-19T09:17:56;100778.24;;;20.42;42.20
62237;BME280;69163;48.778;2.308;2023-09-19T09:20:21;100776.67;;;20.41;42.22
62237;BME280;69163;48.778;2.308;2023-09-19T09:22:52;100775.84;;;20.43;42.19
62237;BME280;69163;48.778;2.308;2023-09-19T09:25:11;100763.62;;;20.48;42.22
62237;BME280;69163;48.778;2.308;2023-09-19T09:27:36;100769.57;;;20.19;42.24
62237;BME280;69163;48.778;2.308;2023-09-19T09:30:02;100768.32;;;20.70;42.28
62237;BME280;69163;48.778;2.308;2023-09-19T09:32:28;100764.73;;;20.39;42.37
62237;BME280;69163;48.778;2.308;2023-09-19T09:34:54;100763.74;;;20.40;42.41
62237;BME280;69163;48.778;2.308;2023-09-19T09:37:18;100760.80;;;20.38;42.43
62237;BME280;69163;48.778;2.308;2023-09-19T09:39:49;100763.90;;;20.60;42.49
62237;BME280;69163;48.778;2.308;2023-09-19T09:42:09;100764.45;;;20.42;42.45
62237;BME280;69163;48.778;2.308;2023-09-19T09:44:33;100760.77;;;20.37;42.53
62237;BME280;69163;48.778;2.308;2023-09-19T09:46:59;100758.96;;;20.63;42.48
62237;BME280;69163;48.778;2.308;2023-09-19T09:49:25;100756.93;;;20.18;42.50
62237;BME280;69163;48.778;2.308;2023-09-19T09:51:50;100764.61;;;20.19;42.55
62237;BME280;69163;48.778;2.308;2023-09-19T09:54:16;100763.88;;;20.20;42.52
62237;BME280;69163;48.778;2.308;2023-09-19T09:56:53;100764.36;;;20.45;42.54
62237;BME280;69163;48.778;2.308;2023-09-19T09:59:05;100758.90;;;20.13;42.70
62237;BME280;69163;48.778;2.308;2023-09-19T10:03:58;100750.68;;;20.42;42.66
62237;BME280;69163;48.778;2.308;2023-09-19T10:06:20;100744.83;;;20.43;42.67
62237;BME280;69163;48.778;2.308;2023-09-19T10:08:59;100753.07;;;20.66;42.61
62237;BME280;69163;48.778;2.308;2023-09-19T10:11:16;100744.16;;;20.14;42.71
62237;BME280;69163;48.778;2.308;2023-09-19T10:13:38;100749.36;;;20.39;42.67
62237;BME280;69163;48.778;2.308;2023-09-19T10:16:06;100748.64;;;20.12;42.79
62237;BME280;69163;48.778;2.308;2023-09-19T10:18:27;100746.08;;;20.14;42.77
62237;BME280;69163;48.778;2.308;2023-09-19T10:20:52;100733.85;;;20.15;42.77
62237;BME280;69163;48.778;2.308;2023-09-19T10:23:19;100741.63;;;20.60;42.80
62237;BME280;69163;48.778;2.308;2023-09-19T10:25:43;100731.42;;;20.31;42.97
62237;BME280;69163;48.778;2.308;2023-09-19T10:28:09;100732.09;;;20.42;42.85
62237;BME280;69163;48.778;2.308;2023-09-19T10:30:33;100730.09;;;20.68;42.75
62237;BME280;69163;48.778;2.308;2023-09-19T10:33:01;100728.05;;;20.62;42.86
62237;BME280;69163;48.778;2.308;2023-09-19T10:35:23;100727.14;;;20.18;42.84
62237;BME280;69163;48.778;2.308;2023-09-19T10:37:49;100726.23;;;20.10;42.95
62237;BME280;69163;48.778;2.308;2023-09-19T10:40:13;100723.82;;;20.09;42.98
62237;BME280;69163;48.778;2.308;2023-09-19T10:42:38;100727.45;;;20.40;42.89
62237;BME280;69163;48.778;2.308;2023-09-19T10:45:05;100724.01;;;20.45;42.84
62237;BME280;69163;48.778;2.308;2023-09-19T10:47:28;100724.14;;;20.70;42.90
62237;BME280;69163;48.778;2.308;2023-09-19T10:49:54;100720.64;;;20.72;42.85
62237;BME280;69163;48.778;2.308;2023-09-19T10:52:22;100718.79;;;20.46;42.84
62237;BME280;69163;48.778;2.308;2023-09-19T10:54:45;100723.03;;;20.44;42.90
62237;BME280;69163;48.778;2.308;2023-09-19T10:57:10;100720.23;;;20.17;42.93
62237;BME280;69163;48.778;2.308;2023-09-19T10:59:35;100722.48;;;20.19;43.00
62237;BME280;69163;48.778;2.308;2023-09-19T11:02:13;100721.35;;;20.51;42.81
62237;BME280;69163;48.778;2.308;2023-09-19T11:04:27;100719.00;;;20.22;42.95
62237;BME280;69163;48.778;2.308;2023-09-19T11:07:02;100719.59;;;20.17;43.04
62237;BME280;69163;48.778;2.308;2023-09-19T11:09:15;100725.77;;;20.22;42.93
62237;BME280;69163;48.778;2.308;2023-09-19T11:11:42;100728.67;;;20.67;43.05
62237;BME280;69163;48.778;2.308;2023-09-19T11:16:31;100726.02;;;20.20;43.03
62237;BME280;69163;48.778;2.308;2023-09-19T11:18:57;100724.49;;;20.71;43.01
62237;BME280;69163;48.778;2.308;2023-09-19T11:28:37;100709.38;;;20.22;42.98
62237;BME280;69163;48.778;2.308;2023-09-19T11:33:29;100709.08;;;20.24;43.04
62237;BME280;69163;48.778;2.308;2023-09-19T11:36:01;100704.35;;;20.45;43.14
62237;BME280;69163;48.778;2.308;2023-09-19T11:38:18;100699.15;;;20.39;43.12
62237;BME280;69163;48.778;2.308;2023-09-19T11:40:47;100701.85;;;20.45;43.06
62237;BME280;69163;48.778;2.308;2023-09-19T11:48:00;100714.29;;;20.79;42.95
62237;BME280;69163;48.778;2.308;2023-09-19T11:50:25;100705.41;;;20.43;43.12
62237;BME280;69163;48.778;2.308;2023-09-19T11:52:50;100710.90;;;20.31;42.93
62237;BME280;69163;48.778;2.308;2023-09-19T11:55:15;100713.01;;;20.45;43.17
62237;BME280;69163;48.778;2.308;2023-09-19T11:57:40;100716.51;;;20.45;43.14
62237;BME280;69163;48.778;2.308;2023-09-19T12:00:17;100719.13;;;20.26;43.07
62237;BME280;69163;48.778;2.308;2023-09-19T12:02:38;100724.25;;;20.49;43.17
62237;BME280;69163;48.778;2.308;2023-09-19T12:04:56;100716.30;;;20.50;43.17
62237;BME280;69163;48.778;2.308;2023-09-19T12:07:21;100717.96;;;20.72;43.17
62237;BME280;69163;48.778;2.308;2023-09-19T12:09:48;100708.73;;;20.82;43.03
62237;BME280;69163;48.778;2.308;2023-09-19T12:12:11;100708.72;;;20.32;43.05
62237;BME280;69163;48.778;2.308;2023-09-19T12:14:36;100711.11;;;20.31;43.08
62237;BME280;69163;48.778;2.308;2023-09-19T12:17:01;100709.45;;;20.56;43.13
62237;BME280;69163;48.778;2.308;2023-09-19T12:19:27;100707.42;;;20.05;43.22
62237;BME280;69163;48.778;2.308;2023-09-19T12:21:57;100707.58;;;20.23;43.33
62237;BME280;69163;48.778;2.308;2023-09-19T12:24:17;100703.65;;;20.47;43.32
62237;BME280;69163;48.778;2.308;2023-09-19T12:26:43;100703.45;;;20.50;43.35
62237;BME280;69163;48.778;2.308;2023-09-19T12:29:13;100691.47;;;20.31;43.20
62237;BME280;69163;48.778;2.308;2023-09-19T12:31:33;100691.55;;;20.77;43.27
62237;BME280;69163;48.778;2.308;2023-09-19T12:33:59;100692.60;;;20.51;43.33
62237;BME280;69163;48.778;2.308;2023-09-19T12:36:23;100694.87;;;20.31;43.32
62237;BME280;69163;48.778;2.308;2023-09-19T12:38:49;100698.34;;;20.76;43.35
62237;BME280;69163;48.778;2.308;2023-09-19T12:41:14;100688.54;;;20.30;43.32
62237;BME280;69163;48.778;2.308;2023-09-19T12:43:39;100686.66;;;20.26;43.41
62237;BME280;69163;48.778;2.308;2023-09-19T12:46:05;100688.12;;;20.75;43.37
62237;BME280;69163;48.778;2.308;2023-09-19T12:48:30;100678.81;;;20.76;43.36
62237;BME280;69163;48.778;2.308;2023-09-19T12:51:02;100676.71;;;20.82;43.31
62237;BME280;69163;48.778;2.308;2023-09-19T12:53:25;100673.37;;;20.51;43.39
62237;BME280;69163;48.778;2.308;2023-09-19T12:55:45;100670.66;;;20.55;43.36
62237;BME280;69163;48.778;2.308;2023-09-19T12:58:12;100669.11;;;20.31;43.42
62237;BME280;69163;48.778;2.308;2023-09-19T13:00:37;100666.21;;;20.29;43.47